Time,TemperatureF,DewpointF,PressureIn,WindDirection,WindDirectionDegrees,WindSpeedMPH,WindSpeedGustMPH,Humidity,HourlyPrecipIn,Conditions,Clouds,dailyrainin,SoftwareType,DateUTC
2013-02-18 00:02:00,-999.0,-99.9,30.07,ESE,105,10.0,12.0,-999,-99.99,,,-99.99,,2013-02-18 05:02:00,
2013-02-18 00:11:00,9.0,-99.9,30.07,ESE,102,11.0,13.0,-999,-99.99,,,-99.99,,2013-02-18 05:11:00,
2013-02-18 00:21:00,-999.0,-99.9,30.07,ESE,107,11.0,13.0,-999,-99.99,,,-99.99,,2013-02-18 05:21:00,
2013-02-18 00:32:00,-999.0,-99.9,30.07,ESE,110,11.0,13.0,-999,-99.99,,,-99.99,,2013-02-18 05:32:00,
2013-02-18 00:42:00,-999.0,-99.9,30.08,ESE,108,12.0,13.0,-999,-99.99,,,-99.99,,2013-02-18 05:42:00,
2013-02-18 00:52:00,-999.0,-99.9,30.08,ESE,107,13.0,14.0,-999,-99.99,,,-99.99,,2013-02-18 05:52:00,
2013-02-18 01:02:00,-999.0,-99.9,30.08,ESE,109,12.0,13.0,-999,-99.99,,,-99.99,,2013-02-18 06:02:00,
2013-02-18 01:11:00,-999.0,-99.9,30.07,ESE,107,12.0,14.0,-999,-99.99,,,-99.99,,2013-02-18 06:11:00,
2013-02-18 01:22:00,10.0,-99.9,30.07,ESE,105,12.0,13.0,-999,-99.99,,,-99.99,,2013-02-18 06:22:00,
2013-02-18 01:32:00,-999.0,-99.9,30.07,ESE,106,12.0,13.0,-999,-99.99,,,-99.99,,2013-02-18 06:32:00,
2013-02-18 01:42:00,10.0,-99.9,30.07,ESE,105,11.0,13.0,-999,-99.99,,,-99.99,,2013-02-18 06:42:00,
2013-02-18 01:52:00,-999.0,-99.9,30.07,ESE,104,11.0,13.0,-999,-99.99,,,-99.99,,2013-02-18 06:52:00,
2013-02-18 02:02:00,-999.0,-99.9,30.07,ESE,108,10.0,12.0,-999,-99.99,,,-99.99,,2013-02-18 07:02:00,
2013-02-18 02:11:00,-999.0,-99.9,30.07,ESE,115,10.0,12.0,-999,-99.99,,,-99.99,,2013-02-18 07:11:00,
2013-02-18 02:22:00,-999.0,-99.9,30.06,ESE,113,9.0,12.0,-999,-99.99,,,-99.99,,2013-02-18 07:22:00,
2013-02-18 02:32:00,-999.0,-99.9,30.06,ESE,104,11.0,13.0,-999,-99.99,,,-99.99,,2013-02-18 07:32:00,
2013-02-18 02:42:00,-999.0,-99.9,30.07,ESE,102,12.0,13.0,-999,-99.99,,,-99.99,,2013-02-18 07:42:00,
2013-02-18 02:52:00,12.0,-99.9,30.06,East,101,11.0,13.0,-999,-99.99,,,-99.99,,2013-02-18 07:52:00,
2013-02-18 03:02:00,-999.0,-99.9,30.06,East,100,11.0,13.0,-999,-99.99,,,-99.99,,2013-02-18 08:02:00,
2013-02-18 03:11:00,11.0,-99.9,30.06,East,99,12.0,13.0,-999,-99.99,,,-99.99,,2013-02-18 08:11:00,
2013-02-18 03:22:00,-999.0,-99.9,30.06,East,96,11.0,13.0,-999,-99.99,,,-99.99,,2013-02-18 08:22:00,
2013-02-18 03:33:00,-999.0,-99.9,30.05,East,96,11.0,11.0,-999,-99.99,,,-99.99,,2013-02-18 08:33:00,
2013-02-18 03:42:00,12.0,-99.9,30.06,ESE,108,11.0,12.0,-999,-99.99,,,-99.99,,2013-02-18 08:42:00,
2013-02-18 03:52:00,-999.0,-99.9,30.05,ESE,116,10.0,13.0,-999,-99.99,,,-99.99,,2013-02-18 08:52:00,
2013-02-18 04:03:00,-999.0,-99.9,30.05,ESE,115,10.0,13.0,-999,-99.99,,,-99.99,,2013-02-18 09:03:00,
2013-02-18 04:11:00,-999.0,-99.9,30.04,ESE,112,12.0,15.0,-999,-99.99,,,-99.99,,2013-02-18 09:11:00,
2013-02-18 04:22:00,12.0,-99.9,30.04,ESE,112,12.0,15.0,-999,-99.99,,,-99.99,,2013-02-18 09:22:00,
2013-02-18 04:32:00,-999.0,-99.9,30.04,ESE,120,11.0,14.0,-999,-99.99,,,-99.99,,2013-02-18 09:32:00,
2013-02-18 04:42:00,-999.0,-99.9,30.03,ESE,122,11.0,14.0,-999,-99.99,,,-99.99,,2013-02-18 09:42:00,
2013-02-18 04:52:00,11.0,-99.9,30.03,ESE,123,10.0,15.0,-999,-99.99,,,-99.99,,2013-02-18 09:52:00,
2013-02-18 05:01:00,-999.0,-99.9,30.03,SE,124,11.0,14.0,-999,-99.99,,,-99.99,,2013-02-18 10:01:00,
2013-02-18 05:12:00,10.0,-99.9,30.03,ESE,123,11.0,16.0,-999,-99.99,,,-99.99,,2013-02-18 10:12:00,
2013-02-18 05:22:00,-999.0,-99.9,30.02,ESE,121,11.0,14.0,-999,-99.99,,,-99.99,,2013-02-18 10:22:00,
2013-02-18 05:32:00,-999.0,-99.9,30.02,ESE,120,12.0,15.0,-999,-99.99,,,-99.99,,2013-02-18 10:32:00,
2013-02-18 05:43:00,-999.0,-99.9,30.01,ESE,119,11.0,15.0,-999,-99.99,,,-99.99,,2013-02-18 10:43:00,
2013-02-18 05:53:00,-999.0,-99.9,30.01,ESE,119,11.0,16.0,-999,-99.99,,,-99.99,,2013-02-18 10:53:00,
2013-02-18 06:02:00,-999.0,-99.9,30.00,ESE,118,13.0,17.0,-999,-99.99,,,-99.99,,2013-02-18 11:02:00,
2013-02-18 06:12:00,-999.0,-99.9,30.00,ESE,118,12.0,15.0,-999,-99.99,,,-99.99,,2013-02-18 11:12:00,
2013-02-18 06:22:00,10.0,-99.9,30.00,ESE,118,12.0,15.0,-999,-99.99,,,-99.99,,2013-02-18 11:22:00,
2013-02-18 06:33:00,-999.0,-99.9,29.98,ESE,112,16.0,18.0,-999,-99.99,,,-99.99,,2013-02-18 11:33:00,
2013-02-18 06:43:00,10.0,-99.9,29.98,ESE,116,15.0,17.0,-999,-99.99,,,-99.99,,2013-02-18 11:43:00,
2013-02-18 06:54:00,-999.0,-99.9,29.97,ESE,115,13.0,16.0,-999,-99.99,,,-99.99,,2013-02-18 11:54:00,
2013-02-18 07:02:00,-999.0,-99.9,29.96,ESE,110,15.0,18.0,-999,-99.99,,,-99.99,,2013-02-18 12:02:00,
2013-02-18 07:12:00,11.0,-99.9,29.96,ESE,110,17.0,21.0,-999,-99.99,,,-99.99,,2013-02-18 12:12:00,
2013-02-18 07:22:00,-999.0,-99.9,29.96,ESE,118,15.0,19.0,-999,-99.99,,,-99.99,,2013-02-18 12:22:00,
2013-02-18 07:32:00,-999.0,-99.9,29.96,ESE,115,15.0,17.0,-999,-99.99,,,-99.99,,2013-02-18 12:32:00,
2013-02-18 07:42:00,-999.0,-99.9,29.94,ESE,110,16.0,19.0,-999,-99.99,,,-99.99,,2013-02-18 12:42:00,
2013-02-18 07:54:00,11.0,-99.9,29.94,ESE,110,17.0,19.0,-999,-99.99,,,-99.99,,2013-02-18 12:54:00,
2013-02-18 08:03:00,-999.0,-99.9,29.93,ESE,115,16.0,21.0,-999,-99.99,,,-99.99,,2013-02-18 13:03:00,
2013-02-18 08:12:00,11.0,-99.9,29.93,ESE,117,18.0,21.0,-999,-99.99,,,-99.99,,2013-02-18 13:12:00,
2013-02-18 08:23:00,-999.0,-99.9,29.93,ESE,116,18.0,21.0,-999,-99.99,,,-99.99,,2013-02-18 13:23:00,
2013-02-18 08:33:00,-999.0,-99.9,29.92,ESE,115,19.0,23.0,-999,-99.99,,,-99.99,,2013-02-18 13:33:00,
2013-02-18 08:43:00,12.0,-99.9,29.92,ESE,111,19.0,23.0,-999,-99.99,,,-99.99,,2013-02-18 13:43:00,
2013-02-18 08:53:00,-999.0,-99.9,29.92,ESE,117,17.0,21.0,-999,-99.99,,,-99.99,,2013-02-18 13:53:00,
2013-02-18 09:02:00,-999.0,-99.9,29.91,ESE,115,16.0,20.0,-999,-99.99,,,-99.99,,2013-02-18 14:02:00,
2013-02-18 09:12:00,-999.0,-99.9,29.90,ESE,115,15.0,20.0,-999,-99.99,,,-99.99,,2013-02-18 14:12:00,
2013-02-18 09:22:00,-999.0,-99.9,29.90,ESE,114,15.0,19.0,-999,-99.99,,,-99.99,,2013-02-18 14:22:00,
2013-02-18 09:34:00,-999.0,-99.9,29.89,ESE,115,16.0,21.0,-999,-99.99,,,-99.99,,2013-02-18 14:34:00,
2013-02-18 09:42:00,-999.0,-99.9,29.89,ESE,117,16.0,22.0,-999,-99.99,,,-99.99,,2013-02-18 14:42:00,
2013-02-18 09:54:00,15.0,-99.9,29.89,ESE,117,17.0,22.0,-999,-99.99,,,-99.99,,2013-02-18 14:54:00,
2013-02-18 10:02:00,-999.0,-99.9,29.89,ESE,114,18.0,23.0,-999,-99.99,,,-99.99,,2013-02-18 15:02:00,
2013-02-18 10:12:00,15.0,-99.9,29.88,ESE,110,19.0,24.0,-999,-99.99,,,-99.99,,2013-02-18 15:12:00,
2013-02-18 10:22:00,-999.0,-99.9,29.88,ESE,110,23.0,27.0,-999,-99.99,,,-99.99,,2013-02-18 15:22:00,
2013-02-18 10:32:00,-999.0,-99.9,29.88,ESE,113,22.0,26.0,-999,-99.99,,,-99.99,,2013-02-18 15:32:00,
2013-02-18 10:42:00,-999.0,-99.9,29.86,ESE,107,25.0,28.0,-999,-99.99,,,-99.99,,2013-02-18 15:42:00,
2013-02-18 10:53:00,-999.0,-99.9,29.86,ESE,108,23.0,27.0,-999,-99.99,,,-99.99,,2013-02-18 15:53:00,
2013-02-18 11:03:00,-999.0,-99.9,29.86,ESE,105,23.0,26.0,-999,-99.99,,,-99.99,,2013-02-18 16:03:00,
2013-02-18 11:12:00,-999.0,-99.9,29.85,ESE,107,23.0,26.0,-999,-99.99,,,-99.99,,2013-02-18 16:12:00,
2013-02-18 11:23:00,18.0,-99.9,29.84,ESE,105,24.0,28.0,-999,-99.99,,,-99.99,,2013-02-18 16:23:00,
2013-02-18 11:33:00,-999.0,-99.9,29.84,ESE,104,23.0,28.0,-999,-99.99,,,-99.99,,2013-02-18 16:33:00,
2013-02-18 11:43:00,19.0,-99.9,29.83,ESE,106,23.0,28.0,-999,-99.99,,,-99.99,,2013-02-18 16:43:00,
2013-02-18 11:53:00,-999.0,-99.9,29.82,ESE,109,23.0,28.0,-999,-99.99,,,-99.99,,2013-02-18 16:53:00,
2013-02-18 12:04:00,-999.0,-99.9,29.82,ESE,111,22.0,26.0,-999,-99.99,,,-99.99,,2013-02-18 17:04:00,
2013-02-18 12:13:00,21.0,-99.9,29.81,ESE,111,21.0,25.0,-999,-99.99,,,-99.99,,2013-02-18 17:13:00,
2013-02-18 12:23:00,-999.0,-99.9,29.80,ESE,121,20.0,28.0,-999,-99.99,,,-99.99,,2013-02-18 17:23:00,
2013-02-18 12:33:00,-999.0,-99.9,29.80,ESE,117,21.0,28.0,-999,-99.99,,,-99.99,,2013-02-18 17:33:00,
2013-02-18 12:43:00,-999.0,-99.9,29.80,ESE,114,19.0,24.0,-999,-99.99,,,-99.99,,2013-02-18 17:43:00,
2013-02-18 12:53:00,23.0,-99.9,29.79,ESE,113,19.0,23.0,-999,-99.99,,,-99.99,,2013-02-18 17:53:00,
2013-02-18 13:03:00,-999.0,-99.9,29.78,ESE,112,18.0,23.0,-999,-99.99,,,-99.99,,2013-02-18 18:03:00,
2013-02-18 13:13:00,25.0,-99.9,29.78,ESE,115,18.0,23.0,-999,-99.99,,,-99.99,,2013-02-18 18:13:00,
2013-02-18 13:23:00,-999.0,-99.9,29.78,ESE,121,16.0,23.0,-999,-99.99,,,-99.99,,2013-02-18 18:23:00,
2013-02-18 13:33:00,-999.0,-99.9,29.77,ESE,117,16.0,21.0,-999,-99.99,,,-99.99,,2013-02-18 18:33:00,
2013-02-18 13:43:00,27.0,-99.9,29.76,ESE,119,15.0,20.0,-999,-99.99,,,-99.99,,2013-02-18 18:43:00,
2013-02-18 13:53:00,-999.0,-99.9,29.75,ESE,121,15.0,21.0,-999,-99.99,,,-99.99,,2013-02-18 18:53:00,
2013-02-18 14:03:00,-999.0,-99.9,29.75,SE,125,13.0,21.0,-999,-99.99,,,-99.99,,2013-02-18 19:03:00,
2013-02-18 14:13:00,-999.0,-99.9,29.74,SE,124,16.0,21.0,-999,-99.99,,,-99.99,,2013-02-18 19:13:00,
2013-02-18 14:23:00,29.0,-99.9,29.73,ESE,118,17.0,22.0,-999,-99.99,,,-99.99,,2013-02-18 19:23:00,
2013-02-18 14:34:00,-999.0,-99.9,29.72,ESE,122,20.0,25.0,-999,-99.99,,,-99.99,,2013-02-18 19:34:00,
2013-02-18 14:43:00,-999.0,-99.9,29.72,SE,129,13.0,22.0,-999,-99.99,,,-99.99,,2013-02-18 19:43:00,
2013-02-18 14:53:00,30.0,-99.9,29.72,ESE,122,15.0,19.0,-999,-99.99,,,-99.99,,2013-02-18 19:53:00,
2013-02-18 15:03:00,-999.0,-99.9,29.72,SE,129,15.0,23.0,-999,-99.99,,,-99.99,,2013-02-18 20:03:00,
2013-02-18 15:13:00,30.0,-99.9,29.71,SE,126,14.0,24.0,-999,-99.99,,,-99.99,,2013-02-18 20:13:00,
2013-02-18 15:24:00,-999.0,-99.9,29.70,ESE,121,16.0,21.0,-999,-99.99,,,-99.99,,2013-02-18 20:24:00,
2013-02-18 15:34:00,-999.0,-99.9,29.69,ESE,121,18.0,24.0,-999,-99.99,,,-99.99,,2013-02-18 20:34:00,
2013-02-18 15:43:00,-999.0,-99.9,29.69,SE,125,18.0,26.0,-999,-99.99,,,-99.99,,2013-02-18 20:43:00,
2013-02-18 15:53:00,-999.0,-99.9,29.69,ESE,121,18.0,27.0,-999,-99.99,,,-99.99,,2013-02-18 20:53:00,
2013-02-18 16:03:00,-999.0,-99.9,29.69,ESE,122,19.0,26.0,-999,-99.99,,,-99.99,,2013-02-18 21:03:00,
2013-02-18 16:12:00,-999.0,-99.9,29.68,ESE,121,19.0,28.0,-999,-99.99,,,-99.99,,2013-02-18 21:12:00,
2013-02-18 16:23:00,29.0,-99.9,29.68,ESE,122,21.0,28.0,-999,-99.99,,,-99.99,,2013-02-18 21:23:00,
2013-02-18 16:33:00,-999.0,-99.9,29.68,ESE,120,19.0,25.0,-999,-99.99,,,-99.99,,2013-02-18 21:33:00,
2013-02-18 16:43:00,29.0,-99.9,29.68,ESE,122,18.0,26.0,-999,-99.99,,,-99.99,,2013-02-18 21:43:00,
2013-02-18 16:53:00,-999.0,-99.9,29.68,ESE,121,18.0,25.0,-999,-99.99,,,-99.99,,2013-02-18 21:53:00,
2013-02-18 17:03:00,-999.0,-99.9,29.67,ESE,119,21.0,28.0,-999,-99.99,,,-99.99,,2013-02-18 22:03:00,
2013-02-18 17:13:00,-999.0,-99.9,29.67,ESE,122,18.0,25.0,-999,-99.99,,,-99.99,,2013-02-18 22:13:00,
2013-02-18 17:23:00,29.0,-99.9,29.67,ESE,119,18.0,24.0,-999,-99.99,,,-99.99,,2013-02-18 22:23:00,
2013-02-18 17:33:00,-999.0,-99.9,29.66,ESE,117,16.0,23.0,-999,-99.99,,,-99.99,,2013-02-18 22:33:00,
2013-02-18 17:44:00,29.0,-99.9,29.67,ESE,119,18.0,24.0,-999,-99.99,,,-99.99,,2013-02-18 22:44:00,
2013-02-18 17:54:00,-999.0,-99.9,29.67,ESE,123,15.0,22.0,-999,-99.99,,,-99.99,,2013-02-18 22:54:00,
2013-02-18 18:03:00,-999.0,-99.9,29.67,ESE,120,16.0,21.0,-999,-99.99,,,-99.99,,2013-02-18 23:03:00,
2013-02-18 18:12:00,29.0,-99.9,29.67,ESE,118,19.0,22.0,-999,-99.99,,,-99.99,,2013-02-18 23:12:00,
2013-02-18 18:23:00,-999.0,-99.9,29.67,ESE,122,16.0,21.0,-999,-99.99,,,-99.99,,2013-02-18 23:23:00,
2013-02-18 18:34:00,-999.0,-99.9,29.67,ESE,120,16.0,22.0,-999,-99.99,,,-99.99,,2013-02-18 23:34:00,
2013-02-18 18:43:00,-999.0,-99.9,29.67,ESE,116,18.0,24.0,-999,-99.99,,,-99.99,,2013-02-18 23:43:00,
2013-02-18 18:54:00,29.0,-99.9,29.67,ESE,113,17.0,21.0,-999,-99.99,,,-99.99,,2013-02-18 23:54:00,
2013-02-18 19:03:00,-999.0,-99.9,29.67,ESE,112,19.0,24.0,-999,-99.99,,,-99.99,,2013-02-19 00:03:00,
2013-02-18 19:13:00,29.0,-99.9,29.67,ESE,111,17.0,22.0,-999,-99.99,,,-99.99,,2013-02-19 00:13:00,
2013-02-18 19:23:00,-999.0,-99.9,29.67,ESE,109,18.0,21.0,-999,-99.99,,,-99.99,,2013-02-19 00:23:00,
2013-02-18 19:36:00,-999.0,-99.9,29.66,ESE,106,23.0,26.0,-999,-99.99,,,-99.99,,2013-02-19 00:36:00,
2013-02-18 19:44:00,29.0,-99.9,29.66,ESE,107,22.0,26.0,-999,-99.99,,,-99.99,,2013-02-19 00:44:00,
2013-02-18 19:55:00,-999.0,-99.9,29.65,ESE,108,21.0,26.0,-999,-99.99,,,-99.99,,2013-02-19 00:55:00,
2013-02-18 20:03:00,-999.0,-99.9,29.64,ESE,111,21.0,26.0,-999,-99.99,,,-99.99,,2013-02-19 01:03:00,
2013-02-18 20:15:00,-999.0,-99.9,29.64,ESE,110,21.0,26.0,-999,-99.99,,,-99.99,,2013-02-19 01:15:00,
2013-02-18 20:25:00,-999.0,-99.9,29.63,ESE,113,22.0,28.0,-999,-99.99,,,-99.99,,2013-02-19 01:25:00,
2013-02-18 20:35:00,-999.0,-99.9,29.62,ESE,114,22.0,28.0,-999,-99.99,,,-99.99,,2013-02-19 01:35:00,
2013-02-18 20:45:00,-999.0,-99.9,29.60,ESE,114,23.0,29.0,-999,-99.99,,,-99.99,,2013-02-19 01:45:00,
2013-02-18 20:57:00,29.0,-99.9,29.60,ESE,115,22.0,31.0,-999,-99.99,,,-99.99,,2013-02-19 01:57:00,
2013-02-18 21:04:00,-999.0,-99.9,29.59,ESE,116,21.0,28.0,-999,-99.99,,,-99.99,,2013-02-19 02:04:00,
2013-02-18 21:15:00,29.0,-99.9,29.58,ESE,118,22.0,28.0,-999,-99.99,,,-99.99,,2013-02-19 02:15:00,
2013-02-18 21:23:00,-999.0,-99.9,29.58,ESE,119,21.0,28.0,-999,-99.99,,,-99.99,,2013-02-19 02:23:00,
2013-02-18 21:35:00,-999.0,-99.9,29.58,ESE,121,19.0,24.0,-999,-99.99,,,-99.99,,2013-02-19 02:35:00,
2013-02-18 21:44:00,30.0,-99.9,29.58,ESE,118,19.0,26.0,-999,-99.99,,,-99.99,,2013-02-19 02:44:00,
2013-02-18 21:56:00,-999.0,-99.9,29.58,ESE,123,18.0,26.0,-999,-99.99,,,-99.99,,2013-02-19 02:56:00,
2013-02-18 22:08:00,-999.0,-99.9,29.57,ESE,121,19.0,24.0,-999,-99.99,,,-99.99,,2013-02-19 03:08:00,
2013-02-18 22:15:00,-999.0,-99.9,29.57,ESE,123,18.0,29.0,-999,-99.99,,,-99.99,,2013-02-19 03:15:00,
2013-02-18 22:25:00,30.0,-99.9,29.57,ESE,119,19.0,24.0,-999,-99.99,,,-99.99,,2013-02-19 03:25:00,
2013-02-18 22:35:00,-999.0,-99.9,29.57,ESE,117,21.0,26.0,-999,-99.99,,,-99.99,,2013-02-19 03:35:00,
2013-02-18 22:46:00,30.0,-99.9,29.57,ESE,115,20.0,26.0,-999,-99.99,,,-99.99,,2013-02-19 03:46:00,
2013-02-18 22:55:00,-999.0,-99.9,29.56,ESE,114,22.0,26.0,-999,-99.99,,,-99.99,,2013-02-19 03:55:00,
2013-02-18 23:03:00,-999.0,-99.9,29.55,ESE,111,21.0,25.0,-999,-99.99,,,-99.99,,2013-02-19 04:03:00,
2013-02-18 23:15:00,30.0,-99.9,29.55,ESE,109,20.0,27.0,-999,-99.99,,,-99.99,,2013-02-19 04:15:00,
2013-02-18 23:24:00,-999.0,-99.9,29.54,ESE,111,20.0,24.0,-999,-99.99,,,-99.99,,2013-02-19 04:24:00,
2013-02-18 23:34:00,-999.0,-99.9,29.54,ESE,112,19.0,24.0,-999,-99.99,,,-99.99,,2013-02-19 04:34:00,
2013-02-18 23:45:00,-999.0,-99.9,29.52,ESE,109,18.0,24.0,-999,-99.99,,,-99.99,,2013-02-19 04:45:00,
2013-02-18 23:56:00,30.0,-99.9,29.52,ESE,107,21.0,23.0,-999,-99.99,,,-99.99,,2013-02-19 04:56:00,